^^
Station Historical Data
Daily Summary for March 3, 2021 Units:  English    Metric   Both
Daily Weekly Monthly Yearly
  High: Low: Average:
Temperature: 40.3 °F 26.5 °F 32.6 °F
Dew Point: 33.7 °F 23.3 °F 28.5 °F
Humidity: 91% 77% 85%
Wind Speed: 9mph 0mph 3mph
Wind Gust: 10mph - -
Wind- - SSW
Pressure: 30.07 in 29.85 in -
Precipitation: 0.00 in    
 
 
Tabular Data for March 3, 2021
Time Temperature Dew Point Pressure Wind Wind Speed Wind Gust Humidity Rainfall Rate (Hourly) solar
00:00 29.1 °F 23.4 °F 29.86 in SW 9 mph 10 mph 79% 0.00 in 0 W/m2
00:05 29 °F 23.3 °F 29.86 in SW 9 mph 10 mph 79% 0.00 in 0 W/m2
00:10 28.9 °F 23.5 °F 29.86 in SSW 8 mph 8 mph 80% 0.00 in 0 W/m2
00:15 28.9 °F 23.5 °F 29.86 in WSW 7 mph 8 mph 80% 0.00 in 0 W/m2
00:20 28.9 °F 23.5 °F 29.86 in SW 7 mph 7 mph 80% 0.00 in 0 W/m2
00:25 29 °F 23.6 °F 29.85 in SSW 6 mph 7 mph 80% 0.00 in 0 W/m2
00:30 29 °F 23.6 °F 29.85 in WSW 6 mph 6 mph 80% 0.00 in 0 W/m2
00:35 29.2 °F 23.5 °F 29.85 in SSW 7 mph 7 mph 79% 0.00 in 0 W/m2
00:40 29.3 °F 23.6 °F 29.86 in WSW 7 mph 9 mph 79% 0.00 in 0 W/m2
00:45 29.4 °F 23.7 °F 29.86 in SW 7 mph 9 mph 79% 0.00 in 0 W/m2
00:50 29.4 °F 23.7 °F 29.86 in SSW 7 mph 7 mph 79% 0.00 in 0 W/m2
00:55 29.2 °F 23.8 °F 29.86 in West 7 mph 7 mph 80% 0.00 in 0 W/m2
01:00 29.3 °F 23.9 °F 29.86 in WSW 6 mph 7 mph 80% 0.00 in 0 W/m2
01:05 29.4 °F 24 °F 29.86 in WSW 6 mph 7 mph 80% 0.00 in 0 W/m2
01:10 29.2 °F 23.8 °F 29.86 in West 6 mph 6 mph 80% 0.00 in 0 W/m2
01:15 29.2 °F 23.8 °F 29.86 in SW 6 mph 6 mph 80% 0.00 in 0 W/m2
01:20 29.2 °F 23.8 °F 29.86 in WSW 6 mph 6 mph 80% 0.00 in 0 W/m2
01:25 29.1 °F 24 °F 29.86 in SW 6 mph 7 mph 81% 0.00 in 0 W/m2
01:30 29.2 °F 24.1 °F 29.86 in SW 6 mph 6 mph 81% 0.00 in 0 W/m2
01:35 29.5 °F 24.1 °F 29.86 in SSW 7 mph 9 mph 80% 0.00 in 0 W/m2
01:40 29.5 °F 24.4 °F 29.86 in WSW 7 mph 7 mph 81% 0.00 in 0 W/m2
01:45 29.6 °F 24.5 °F 29.86 in SSW 7 mph 8 mph 81% 0.00 in 0 W/m2
01:50 29.7 °F 24.6 °F 29.86 in SW 7 mph 7 mph 81% 0.00 in 0 W/m2
01:55 29.8 °F 24.7 °F 29.86 in SW 8 mph 10 mph 81% 0.00 in 0 W/m2
02:00 30 °F 24.6 °F 29.86 in SW 9 mph 10 mph 80% 0.00 in 0 W/m2
02:05 29.8 °F 24.4 °F 29.86 in WSW 9 mph 10 mph 80% 0.00 in 0 W/m2
02:10 29.7 °F 24.6 °F 29.86 in WSW 7 mph 7 mph 81% 0.00 in 0 W/m2
02:15 29.9 °F 24.8 °F 29.86 in West 7 mph 7 mph 81% 0.00 in 0 W/m2
02:20 29.8 °F 24.7 °F 29.86 in WSW 7 mph 7 mph 81% 0.00 in 0 W/m2
02:25 29.8 °F 24.7 °F 29.86 in WSW 8 mph 8 mph 81% 0.00 in 0 W/m2
02:30 29.8 °F 25 °F 29.86 in SSW 8 mph 8 mph 82% 0.00 in 0 W/m2
02:35 29.9 °F 25.1 °F 29.85 in SSW 8 mph 10 mph 82% 0.00 in 0 W/m2
02:45 29.9 °F 25.1 °F 29.85 in WSW 7 mph 8 mph 82% 0.00 in 0 W/m2
02:50 29.9 °F 25.1 °F 29.85 in WNW 6 mph 6 mph 82% 0.00 in 0 W/m2
02:55 29.7 °F 24.9 °F 29.85 in SW 5 mph 6 mph 82% 0.00 in 0 W/m2
03:00 29.5 °F 25 °F 29.85 in WSW 5 mph 5 mph 83% 0.00 in 0 W/m2
03:05 29.3 °F 24.8 °F 29.85 in WSW 4 mph 5 mph 83% 0.00 in 0 W/m2
03:10 29.1 °F 24.9 °F 29.85 in WSW 4 mph 5 mph 84% 0.00 in 0 W/m2
03:15 29.1 °F 24.9 °F 29.85 in SSW 4 mph 6 mph 84% 0.00 in 0 W/m2
03:20 28.8 °F 24.6 °F 29.85 in WSW 5 mph 6 mph 84% 0.00 in 0 W/m2
03:25 28.7 °F 24.5 °F 29.85 in SW 5 mph 6 mph 84% 0.00 in 0 W/m2
03:35 28.2 °F 24.3 °F 29.85 in SW 4 mph 5 mph 85% 0.00 in 0 W/m2
03:40 28 °F 24.1 °F 29.85 in SW 4 mph 4 mph 85% 0.00 in 0 W/m2
03:45 27.9 °F 24.3 °F 29.85 in SW 4 mph 4 mph 86% 0.00 in 0 W/m2
03:50 27.9 °F 24.3 °F 29.85 in West 3 mph 4 mph 86% 0.00 in 0 W/m2
03:55 27.8 °F 24.2 °F 29.85 in SSW 4 mph 4 mph 86% 0.00 in 0 W/m2
04:00 27.8 °F 24.2 °F 29.85 in SSW 4 mph 4 mph 86% 0.00 in 0 W/m2
04:05 27.8 °F 24.2 °F 29.85 in SW 4 mph 4 mph 86% 0.00 in 0 W/m2
04:10 27.9 °F 24.5 °F 29.85 in WSW 3 mph 3 mph 87% 0.00 in 0 W/m2
04:15 28 °F 24.4 °F 29.85 in SW 3 mph 4 mph 86% 0.00 in 0 W/m2
04:20 28 °F 24.4 °F 29.85 in SSW 4 mph 6 mph 86% 0.00 in 0 W/m2
04:25 28.1 °F 24.5 °F 29.85 in WSW 5 mph 6 mph 86% 0.00 in 0 W/m2
04:30 28.1 °F 24.5 °F 29.85 in WSW 5 mph 5 mph 86% 0.00 in 0 W/m2
04:35 28.1 °F 24.5 °F 29.85 in SW 4 mph 5 mph 86% 0.00 in 0 W/m2
04:40 28.2 °F 24.6 °F 29.85 in WSW 4 mph 4 mph 86% 0.00 in 0 W/m2
04:45 28.2 °F 24.6 °F 29.85 in SW 3 mph 7 mph 86% 0.00 in 0 W/m2
04:50 28.2 °F 24.6 °F 29.86 in West 4 mph 4 mph 86% 0.00 in 0 W/m2
04:55 28.2 °F 24.6 °F 29.86 in SW 4 mph 4 mph 86% 0.00 in 0 W/m2
05:00 28.3 °F 24.6 °F 29.86 in SSW 5 mph 7 mph 86% 0.00 in 0 W/m2
05:05 28.2 °F 24.6 °F 29.86 in SW 4 mph 7 mph 86% 0.00 in 0 W/m2
05:10 28.1 °F 24.5 °F 29.86 in SW 4 mph 4 mph 86% 0.00 in 0 W/m2
05:15 28 °F 24.4 °F 29.86 in SSW 4 mph 4 mph 86% 0.00 in 0 W/m2
05:20 27.9 °F 24.5 °F 29.86 in WSW 4 mph 5 mph 87% 0.00 in 0 W/m2
05:25 28 °F 24.6 °F 29.86 in SW 4 mph 5 mph 87% 0.00 in 0 W/m2
05:30 27.9 °F 24.5 °F 29.86 in WSW 4 mph 4 mph 87% 0.00 in 0 W/m2
05:35 28 °F 24.6 °F 29.86 in SW 3 mph 4 mph 87% 0.00 in 0 W/m2
05:40 27.9 °F 24.5 °F 29.86 in WSW 4 mph 4 mph 87% 0.00 in 0 W/m2
05:45 27.7 °F 24.3 °F 29.86 in SW 3 mph 4 mph 87% 0.00 in 0 W/m2
05:50 27.6 °F 24.2 °F 29.86 in SSW 2 mph 2 mph 87% 0.00 in 0 W/m2
05:55 27.5 °F 24.1 °F 29.86 in WSW 2 mph 2 mph 87% 0.00 in 0 W/m2
06:00 27.5 °F 24.1 °F 29.85 in SSW 3 mph 3 mph 87% 0.00 in 0 W/m2
06:05 27.6 °F 24.2 °F 29.86 in SSW 3 mph 3 mph 87% 0.00 in 0 W/m2
06:10 27.5 °F 24.1 °F 29.85 in SW 2 mph 5 mph 87% 0.00 in 0 W/m2
06:15 27.8 °F 24.7 °F 29.85 in SSW 3 mph 5 mph 88% 0.00 in 0 W/m2
06:20 27.9 °F 24.8 °F 29.85 in SSW 4 mph 4 mph 88% 0.00 in 0 W/m2
06:25 28.1 °F 25 °F 29.85 in South 3 mph 4 mph 88% 0.00 in 0 W/m2
06:30 28.2 °F 25.1 °F 29.86 in SSW 3 mph 5 mph 88% 0.00 in 0 W/m2
06:35 28 °F 24.6 °F 29.86 in South 3 mph 5 mph 87% 0.00 in 0 W/m2
06:40 26.9 °F 23.5 °F 29.86 in South 1 mph 1 mph 87% 0.00 in 0 W/m2
06:45 26.6 °F 23.3 °F 29.86 in Calm   1 mph 87% 0.00 in 0 W/m2
06:50 26.5 °F 23.4 °F 29.86 in South 1 mph 1 mph 88% 0.00 in 0 W/m2
06:55 26.5 °F 23.4 °F 29.86 in SSW 1 mph 1 mph 88% 0.00 in 0 W/m2
07:00 26.5 °F 23.4 °F 29.86 in ESE 1 mph 1 mph 88% 0.00 in 0 W/m2
07:10 26.9 °F 24.1 °F 29.86 in SSE 1 mph 1 mph 89% 0.00 in 7 W/m2
07:15 27 °F 24.2 °F 29.86 in Calm   1 mph 89% 0.00 in 11 W/m2
07:20 27.2 °F 24.4 °F 29.86 in Calm     89% 0.00 in 14 W/m2
07:25 27.2 °F 24.4 °F 29.86 in Calm     89% 0.00 in 18 W/m2
07:30 27.4 °F 24.6 °F 29.86 in Calm   2 mph 89% 0.00 in 25 W/m2
07:35 28.2 °F 25.6 °F 29.87 in SW 1 mph 2 mph 90% 0.00 in 40 W/m2
07:40 28.6 °F 25.8 °F 29.87 in WSW 1 mph 3 mph 89% 0.00 in 51 W/m2
07:45 28.9 °F 26.1 °F 29.86 in SSW 2 mph 3 mph 89% 0.00 in 65 W/m2
07:50 28.9 °F 25.8 °F 29.87 in SW 2 mph 2 mph 88% 0.00 in 79 W/m2
07:55 28.7 °F 25.6 °F 29.87 in SSW 2 mph 2 mph 88% 0.00 in 93 W/m2
08:00 28.4 °F 25.3 °F 29.87 in SSW 1 mph 1 mph 88% 0.00 in 104 W/m2
08:05 27.9 °F 24.8 °F 29.87 in Calm   1 mph 88% 0.00 in 118 W/m2
08:10 27.7 °F 24.6 °F 29.87 in Calm   1 mph 88% 0.00 in 123 W/m2
08:15 27.7 °F 24.6 °F 29.87 in SSW 1 mph 1 mph 88% 0.00 in 135 W/m2
08:20 27.9 °F 24.8 °F 29.87 in SSW 2 mph 2 mph 88% 0.00 in 149 W/m2
08:25 27.9 °F 24.8 °F 29.87 in SSW 2 mph 3 mph 88% 0.00 in 139 W/m2
08:30 28 °F 24.9 °F 29.87 in SSW 1 mph 1 mph 88% 0.00 in 107 W/m2
08:35 28.3 °F 25.2 °F 29.87 in SSW 1 mph 2 mph 88% 0.00 in 148 W/m2
08:40 28.3 °F 25.2 °F 29.87 in South 1 mph 2 mph 88% 0.00 in 167 W/m2
08:45 28.6 °F 25.5 °F 29.87 in SSW 2 mph 3 mph 88% 0.00 in 156 W/m2
08:50 29 °F 25.9 °F 29.87 in SSW 3 mph 3 mph 88% 0.00 in 155 W/m2
08:55 29.6 °F 26.5 °F 29.88 in SW 3 mph 3 mph 88% 0.00 in 116 W/m2
09:00 31.1 °F 28 °F 29.88 in SW 3 mph 5 mph 88% 0.00 in 195 W/m2
09:05 31.3 °F 27.9 °F 29.87 in SW 3 mph 5 mph 87% 0.00 in 195 W/m2
09:10 31.6 °F 28.2 °F 29.87 in SW 4 mph 4 mph 87% 0.00 in 174 W/m2
09:15 32.1 °F 28.7 °F 29.87 in SW 3 mph 4 mph 87% 0.00 in 176 W/m2
09:20 32.5 °F 28.8 °F 29.87 in SW 3 mph 3 mph 86% 0.00 in 227 W/m2
09:25 32.5 °F 28.8 °F 29.87 in SW 3 mph 3 mph 86% 0.00 in 272 W/m2
09:30 33 °F 29.3 °F 29.87 in WSW 3 mph 3 mph 86% 0.00 in 287 W/m2
09:35 33.3 °F 29.3 °F 29.88 in WNW 2 mph 3 mph 85% 0.00 in 241 W/m2
09:40 33.5 °F 29.5 °F 29.88 in SW 2 mph 4 mph 85% 0.00 in 209 W/m2
09:45 33.7 °F 29.7 °F 29.87 in SSW 2 mph 4 mph 85% 0.00 in 213 W/m2
09:50 33.8 °F 29.8 °F 29.87 in West 2 mph 3 mph 85% 0.00 in 313 W/m2
09:55 33.9 °F 29.9 °F 29.87 in WSW 2 mph 4 mph 85% 0.00 in 165 W/m2
10:00 34.1 °F 30.1 °F 29.87 in SSW 2 mph 3 mph 85% 0.00 in 257 W/m2
10:05 34.3 °F 30.3 °F 29.87 in West 3 mph 3 mph 85% 0.00 in 295 W/m2
10:10 34.2 °F 30.2 °F 29.87 in SSW 3 mph 3 mph 85% 0.00 in 362 W/m2
10:20 34.6 °F 30.3 °F 29.87 in West 3 mph 4 mph 84% 0.00 in 462 W/m2
10:25 34.6 °F 30.3 °F 29.87 in WSW 3 mph 6 mph 84% 0.00 in 471 W/m2
10:30 34.5 °F 30.2 °F 29.88 in WSW 4 mph 4 mph 84% 0.00 in 276 W/m2
10:35 34.6 °F 30.6 °F 29.87 in SW 4 mph 4 mph 85% 0.00 in 380 W/m2
10:40 34.8 °F 30.8 °F 29.87 in WNW 3 mph 3 mph 85% 0.00 in 411 W/m2
10:45 34.9 °F 30.8 °F 29.87 in SW 2 mph 3 mph 85% 0.00 in 475 W/m2
10:50 35 °F 30.7 °F 29.88 in WSW 2 mph 2 mph 84% 0.00 in 492 W/m2
10:55 34.9 °F 30.6 °F 29.88 in WNW 3 mph 4 mph 84% 0.00 in 466 W/m2
11:00 35 °F 30.7 °F 29.88 in SW 4 mph 4 mph 84% 0.00 in 281 W/m2
11:05 35.1 °F 30.8 °F 29.88 in SW 4 mph 4 mph 84% 0.00 in 276 W/m2
11:10 35 °F 30.7 °F 29.88 in SW 4 mph 4 mph 84% 0.00 in 526 W/m2
11:15 35.1 °F 31 °F 29.89 in SW 4 mph 4 mph 85% 0.00 in 554 W/m2
11:20 35.2 °F 30.9 °F 29.88 in SW 4 mph 7 mph 84% 0.00 in 568 W/m2
11:25 35.3 °F 31.2 °F 29.88 in SW 4 mph 7 mph 85% 0.00 in 575 W/m2
11:30 35.4 °F 31.3 °F 29.88 in SW 3 mph 3 mph 85% 0.00 in 582 W/m2
11:35 35.6 °F 31.5 °F 29.89 in SW 3 mph 3 mph 85% 0.00 in 587 W/m2
11:40 35.4 °F 31.3 °F 29.88 in SSW 3 mph 3 mph 85% 0.00 in 592 W/m2
11:45 35.4 °F 31.3 °F 29.88 in SW 3 mph 3 mph 85% 0.00 in 601 W/m2
11:50 35.6 °F 31.5 °F 29.89 in SSW 3 mph 3 mph 85% 0.00 in 608 W/m2
12:00 36.1 °F 32 °F 29.89 in SW 3 mph 4 mph 85% 0.00 in 615 W/m2
12:05 36.4 °F 32.3 °F 29.89 in SW 4 mph 4 mph 85% 0.00 in 619 W/m2
12:10 36.6 °F 32.2 °F 29.89 in SW 3 mph 3 mph 84% 0.00 in 622 W/m2
12:15 36.6 °F 32.5 °F 29.89 in SW 2 mph 4 mph 85% 0.00 in 626 W/m2
12:20 36.5 °F 32.1 °F 29.89 in WSW 3 mph 3 mph 84% 0.00 in 628 W/m2
12:25 36.7 °F 32.3 °F 29.89 in SW 3 mph 3 mph 84% 0.00 in 629 W/m2
12:30 36.9 °F 32.5 °F 29.89 in SW 2 mph 2 mph 84% 0.00 in 633 W/m2
12:35 37.1 °F 32.4 °F 29.88 in SW 3 mph 3 mph 83% 0.00 in 636 W/m2
12:40 36.8 °F 32.4 °F 29.88 in SSW 3 mph 3 mph 84% 0.00 in 638 W/m2
12:45 37.3 °F 32.6 °F 29.89 in WSW 4 mph 4 mph 83% 0.00 in 636 W/m2
12:50 37.5 °F 32.8 °F 29.89 in SW 3 mph 4 mph 83% 0.00 in 636 W/m2
12:55 37.9 °F 32.9 °F 29.89 in SSW 3 mph 4 mph 82% 0.00 in 636 W/m2
13:00 38 °F 32.7 °F 29.89 in SSW 4 mph 4 mph 81% 0.00 in 638 W/m2
13:05 37.7 °F 32.7 °F 29.88 in SW 4 mph 4 mph 82% 0.00 in 640 W/m2
13:10 37.5 °F 32.5 °F 29.88 in SSW 3 mph 3 mph 82% 0.00 in 640 W/m2
13:15 36.5 °F 31.8 °F 29.88 in SSW 2 mph 3 mph 83% 0.00 in 638 W/m2
13:20 36.2 °F 31.8 °F 29.88 in SSW 1 mph 1 mph 84% 0.00 in 638 W/m2
13:25 37.1 °F 32.7 °F 29.88 in SSW 1 mph 1 mph 84% 0.00 in 633 W/m2
13:30 37.1 °F 32.1 °F 29.88 in SSW 1 mph 1 mph 82% 0.00 in 635 W/m2
13:35 38 °F 33.3 °F 29.88 in SW 1 mph 2 mph 83% 0.00 in 631 W/m2
13:40 39 °F 33.4 °F 29.88 in West 2 mph 7 mph 80% 0.00 in 629 W/m2
13:45 39.3 °F 33.6 °F 29.88 in SW 3 mph 7 mph 80% 0.00 in 624 W/m2
13:50 39.4 °F 33.4 °F 29.88 in WSW 3 mph 5 mph 79% 0.00 in 621 W/m2
13:55 39.6 °F 33.6 °F 29.88 in WSW 3 mph 5 mph 79% 0.00 in 615 W/m2
14:00 39.6 °F 33.6 °F 29.88 in WSW 3 mph 3 mph 79% 0.00 in 608 W/m2
14:05 40.2 °F 33.6 °F 29.89 in West 2 mph 6 mph 77% 0.00 in 599 W/m2
14:10 40.3 °F 33.7 °F 29.89 in SW 3 mph 3 mph 77% 0.00 in 594 W/m2
14:15 40.3 °F 33.7 °F 29.89 in SSW 3 mph 5 mph 77% 0.00 in 592 W/m2
14:20 39.5 °F 33.2 °F 29.89 in WSW 4 mph 4 mph 78% 0.00 in 582 W/m2
14:25 39.3 °F 33.3 °F 29.89 in WSW 4 mph 4 mph 79% 0.00 in 571 W/m2
14:30 39.1 °F 33.1 °F 29.89 in WSW 3 mph 3 mph 79% 0.00 in 566 W/m2
14:35 39.2 °F 33.5 °F 29.89 in SW 3 mph 3 mph 80% 0.00 in 557 W/m2
14:40 39 °F 33.4 °F 29.89 in WSW 2 mph 4 mph 80% 0.00 in 554 W/m2
14:45 38.7 °F 33.1 °F 29.89 in WSW 3 mph 4 mph 80% 0.00 in 550 W/m2
14:50 38.2 °F 32.9 °F 29.89 in SW 3 mph 3 mph 81% 0.00 in 554 W/m2
14:55 38.2 °F 33.2 °F 29.89 in SW 3 mph 3 mph 82% 0.00 in 524 W/m2
15:00 38.7 °F 33.1 °F 29.89 in SW 3 mph 3 mph 80% 0.00 in 512 W/m2
15:05 38.7 °F 33.1 °F 29.89 in SW 3 mph 3 mph 80% 0.00 in 520 W/m2
15:10 39.3 °F 33 °F 29.89 in SW 2 mph 2 mph 78% 0.00 in 519 W/m2
15:15 39.4 °F 33.1 °F 29.89 in SW 1 mph 2 mph 78% 0.00 in 566 W/m2
15:20 39.1 °F 33.1 °F 29.90 in SW 1 mph 1 mph 79% 0.00 in 533 W/m2
15:25 39.1 °F 33.1 °F 29.90 in Calm   1 mph 79% 0.00 in 526 W/m2
15:30 38.9 °F 32.9 °F 29.90 in SW 1 mph 1 mph 79% 0.00 in 236 W/m2
15:35 38.5 °F 32.6 °F 29.90 in SW 1 mph 1 mph 79% 0.00 in 125 W/m2
15:40 39.6 °F 33 °F 29.90 in ENE 1 mph 3 mph 77% 0.00 in 139 W/m2
15:45 39.2 °F 32.6 °F 29.90 in ENE 2 mph 3 mph 77% 0.00 in 127 W/m2
15:50 39 °F 32.4 °F 29.90 in NE 2 mph 2 mph 77% 0.00 in 137 W/m2
15:55 38.4 °F 31.8 °F 29.91 in ENE 3 mph 5 mph 77% 0.00 in 139 W/m2
16:00 37.6 °F 32 °F 29.91 in ENE 3 mph 3 mph 80% 0.00 in 144 W/m2
16:05 37.1 °F 31.8 °F 29.92 in NE 3 mph 3 mph 81% 0.00 in 162 W/m2
16:10 37.3 °F 31.7 °F 29.92 in NNE 2 mph 3 mph 80% 0.00 in 111 W/m2
16:15 36.9 °F 31.3 °F 29.92 in NE 3 mph 4 mph 80% 0.00 in 107 W/m2
16:20 36.6 °F 31.3 °F 29.93 in NNE 3 mph 3 mph 81% 0.00 in 105 W/m2
16:25 36.4 °F 31.1 °F 29.93 in NNW 3 mph 3 mph 81% 0.00 in 151 W/m2
16:30 36.4 °F 31.1 °F 29.93 in North 2 mph 4 mph 81% 0.00 in 113 W/m2
16:35 36.3 °F 31 °F 29.93 in NE 2 mph 4 mph 81% 0.00 in 141 W/m2
16:40 36.1 °F 31.1 °F 29.93 in North 3 mph 4 mph 82% 0.00 in 125 W/m2
16:45 35.9 °F 30.9 °F 29.94 in NNE 3 mph 4 mph 82% 0.00 in 95 W/m2
16:50 35.7 °F 31 °F 29.94 in North 3 mph 3 mph 83% 0.00 in 83 W/m2
16:55 35.5 °F 30.8 °F 29.94 in ENE 2 mph 4 mph 83% 0.00 in 95 W/m2
17:00 35.3 °F 30.9 °F 29.94 in ENE 2 mph 3 mph 84% 0.00 in 93 W/m2
17:05 35.3 °F 30.9 °F 29.94 in NNW 3 mph 3 mph 84% 0.00 in 79 W/m2
17:10 35.1 °F 30.8 °F 29.94 in East 3 mph 3 mph 84% 0.00 in 72 W/m2
17:15 35 °F 30.9 °F 29.94 in East 2 mph 3 mph 85% 0.00 in 65 W/m2
17:20 35 °F 30.7 °F 29.94 in ENE 2 mph 2 mph 84% 0.00 in 56 W/m2
17:25 34.8 °F 30.8 °F 29.95 in East 2 mph 2 mph 85% 0.00 in 42 W/m2
17:30 34.6 °F 30.6 °F 29.95 in East 2 mph 2 mph 85% 0.00 in 37 W/m2
17:35 34.5 °F 30.7 °F 29.95 in ENE 2 mph 3 mph 86% 0.00 in 51 W/m2
17:40 34.3 °F 30.5 °F 29.95 in East 2 mph 3 mph 86% 0.00 in 56 W/m2
17:45 34.4 °F 30.6 °F 29.95 in ENE 2 mph 3 mph 86% 0.00 in 44 W/m2
17:50 34.3 °F 30.5 °F 29.96 in NE 2 mph 2 mph 86% 0.00 in 49 W/m2
17:55 34.3 °F 30.5 °F 29.96 in NE 1 mph 2 mph 86% 0.00 in 39 W/m2
18:00 34.2 °F 30.4 °F 29.96 in Calm     86% 0.00 in 26 W/m2
18:05 34 °F 30.3 °F 29.96 in ENE 1 mph 1 mph 86% 0.00 in 23 W/m2
18:10 33.7 °F 30.2 °F 29.97 in ENE 1 mph 1 mph 87% 0.00 in 18 W/m2
18:15 33.6 °F 30.1 °F 29.97 in ENE 1 mph 1 mph 87% 0.00 in 12 W/m2
18:20 33.5 °F 30.3 °F 29.97 in ENE 2 mph 2 mph 88% 0.00 in 9 W/m2
18:25 33.3 °F 30.1 °F 29.97 in ENE 2 mph 2 mph 88% 0.00 in 5 W/m2
18:30 33.2 °F 30 °F 29.98 in ENE 1 mph 1 mph 88% 0.00 in 0 W/m2
18:40 33 °F 30.1 °F 29.99 in ENE 1 mph 1 mph 89% 0.00 in 0 W/m2
18:45 33 °F 30.1 °F 29.99 in NE 1 mph 1 mph 89% 0.00 in 0 W/m2
18:50 33 °F 30.1 °F 29.99 in NE 1 mph 1 mph 89% 0.00 in 0 W/m2
18:55 33 °F 30.1 °F 29.99 in NE 1 mph 1 mph 89% 0.00 in 0 W/m2
19:00 33 °F 30.4 °F 30.00 in NE 1 mph 1 mph 90% 0.00 in 0 W/m2
19:10 33.3 °F 30.7 °F 30.00 in East 1 mph 1 mph 90% 0.00 in 0 W/m2
19:15 33.3 °F 30.7 °F 30.00 in East 1 mph 2 mph 90% 0.00 in 0 W/m2
19:20 33.4 °F 30.8 °F 30.01 in East 1 mph 1 mph 90% 0.00 in 0 W/m2
19:25 33.3 °F 30.7 °F 30.01 in East 1 mph 1 mph 90% 0.00 in 0 W/m2
19:30 33.3 °F 30.7 °F 30.02 in East 1 mph 1 mph 90% 0.00 in 0 W/m2
19:40 33.3 °F 30.7 °F 30.02 in East 1 mph 1 mph 90% 0.00 in 0 W/m2
19:45 33.2 °F 30.6 °F 30.02 in East 1 mph 1 mph 90% 0.00 in 0 W/m2
19:50 33.3 °F 31 °F 30.02 in East 1 mph 1 mph 91% 0.00 in 0 W/m2
19:55 33.4 °F 31.1 °F 30.02 in East 1 mph 1 mph 91% 0.00 in 0 W/m2
20:00 33.5 °F 31.2 °F 30.02 in NE 1 mph 3 mph 91% 0.00 in 0 W/m2
20:05 33.5 °F 31.2 °F 30.02 in ENE 1 mph 3 mph 91% 0.00 in 0 W/m2
20:10 33.6 °F 31.3 °F 30.02 in ENE 2 mph 3 mph 91% 0.00 in 0 W/m2
20:20 33.5 °F 30.9 °F 30.03 in ENE 2 mph 2 mph 90% 0.00 in 0 W/m2
20:25 33.5 °F 30.9 °F 30.02 in NE 1 mph 2 mph 90% 0.00 in 0 W/m2
20:30 33.4 °F 30.8 °F 30.03 in NE 1 mph 1 mph 90% 0.00 in 0 W/m2
20:35 33.3 °F 30.7 °F 30.03 in North 1 mph 1 mph 90% 0.00 in 0 W/m2
20:40 33.2 °F 30.6 °F 30.03 in North 1 mph 2 mph 90% 0.00 in 0 W/m2
20:45 33.2 °F 30.6 °F 30.03 in North 1 mph 2 mph 90% 0.00 in 0 W/m2
20:50 33.3 °F 30.7 °F 30.03 in North 1 mph 1 mph 90% 0.00 in 0 W/m2
20:55 33.2 °F 30.6 °F 30.03 in Calm   1 mph 90% 0.00 in 0 W/m2
21:00 33.2 °F 30.9 °F 30.04 in Calm   1 mph 91% 0.00 in 0 W/m2
21:05 33.1 °F 30.5 °F 30.04 in Calm   1 mph 90% 0.00 in 0 W/m2
21:10 33.1 °F 30.8 °F 30.04 in Calm   1 mph 91% 0.00 in 0 W/m2
21:15 33.1 °F 30.8 °F 30.04 in North 1 mph 1 mph 91% 0.00 in 0 W/m2
21:20 33.2 °F 30.9 °F 30.04 in North 1 mph 1 mph 91% 0.00 in 0 W/m2
21:25 33.3 °F 31 °F 30.05 in North 1 mph 1 mph 91% 0.00 in 0 W/m2
21:30 33.4 °F 31.1 °F 30.05 in Calm     91% 0.00 in 0 W/m2
21:35 33.3 °F 31 °F 30.04 in Calm   1 mph 91% 0.00 in 0 W/m2
21:40 33.2 °F 30.9 °F 30.05 in Calm     91% 0.00 in 0 W/m2
21:45 33.2 °F 30.9 °F 30.05 in Calm     91% 0.00 in 0 W/m2
21:50 33.1 °F 30.8 °F 30.05 in North 1 mph 1 mph 91% 0.00 in 0 W/m2
21:55 33.2 °F 30.9 °F 30.05 in North 1 mph 1 mph 91% 0.00 in 0 W/m2
22:00 33.1 °F 30.8 °F 30.05 in North 1 mph 2 mph 91% 0.00 in 0 W/m2
22:05 33.1 °F 30.8 °F 30.06 in NW 1 mph 2 mph 91% 0.00 in 0 W/m2
22:10 33.1 °F 30.8 °F 30.06 in NW 1 mph 1 mph 91% 0.00 in 0 W/m2
22:15 33.1 °F 30.8 °F 30.06 in Calm   1 mph 91% 0.00 in 0 W/m2
22:20 33.1 °F 30.8 °F 30.06 in Calm   1 mph 91% 0.00 in 0 W/m2
22:25 33.2 °F 30.9 °F 30.06 in NW 1 mph 2 mph 91% 0.00 in 0 W/m2
22:30 33.2 °F 30.6 °F 30.06 in NNW 2 mph 4 mph 90% 0.00 in 0 W/m2
22:35 33.2 °F 30 °F 30.06 in NNW 3 mph 4 mph 88% 0.00 in 0 W/m2
22:40 33.3 °F 29.6 °F 30.07 in NNW 3 mph 3 mph 86% 0.00 in 0 W/m2
22:45 33.3 °F 29 °F 30.07 in NNW 3 mph 8 mph 84% 0.00 in 0 W/m2
22:50 33.3 °F 28.4 °F 30.07 in North 5 mph 5 mph 82% 0.00 in 0 W/m2
22:55 33.2 °F 28.3 °F 30.07 in NW 6 mph 8 mph 82% 0.00 in 0 W/m2
23:00 33 °F 28.1 °F 30.07 in NW 5 mph 5 mph 82% 0.00 in 0 W/m2
23:05 32.8 °F 27.9 °F 30.07 in NW 5 mph 5 mph 82% 0.00 in 0 W/m2
23:10 32.7 °F 27.8 °F 30.07 in NW 5 mph 5 mph 82% 0.00 in 0 W/m2
23:15 32.5 °F 27.6 °F 30.07 in NW 4 mph 5 mph 82% 0.00 in 0 W/m2
23:20 32.5 °F 27.6 °F 30.07 in NW 4 mph 4 mph 82% 0.00 in 0 W/m2
23:25 32.4 °F 27.5 °F 30.07 in North 4 mph 4 mph 82% 0.00 in 0 W/m2
23:30 32.3 °F 27.4 °F 30.07 in NW 3 mph 3 mph 82% 0.00 in 0 W/m2
23:35 32.3 °F 27.7 °F 30.07 in NW 3 mph 3 mph 83% 0.00 in 0 W/m2
23:40 32.2 °F 27.6 °F 30.07 in North 4 mph 4 mph 83% 0.00 in 0 W/m2
23:45 32.1 °F 27.2 °F 30.07 in NW 4 mph 4 mph 82% 0.00 in 0 W/m2
23:50 32 °F 27.1 °F 30.07 in NNW 4 mph 4 mph 82% 0.00 in 0 W/m2
23:55 31.9 °F 26.7 °F 30.07 in NNW 4 mph 4 mph 81% 0.00 in 0 W/m2
Sand Point, Michigan, USA
Compliments of Weather Underground - 2 mb